sensor_id;sensor_type;location;lat;lon;timestamp;pressure;altitude;pressure_sealevel;temperature;humidity
10482;BME280;5288;42.334;23.876;2022-10-03T00:00:08;56219.41;;;-140.56;64.14
10482;BME280;5288;42.334;23.876;2022-10-03T00:05:54;56237.19;;;-140.56;64.20
10482;BME280;5288;42.334;23.876;2022-10-03T00:08:35;56223.34;;;-140.56;64.44
10482;BME280;5288;42.334;23.876;2022-10-03T00:11:15;56249.03;;;-140.56;64.47
10482;BME280;5288;42.334;23.876;2022-10-03T00:13:54;56266.81;;;-140.56;65.09
10482;BME280;5288;42.334;23.876;2022-10-03T00:16:36;56243.13;;;-140.56;64.47
10482;BME280;5288;42.334;23.876;2022-10-03T00:19:12;56239.16;;;-140.56;64.88
10482;BME280;5288;42.334;23.876;2022-10-03T00:21:52;56258.94;;;-140.56;64.99
10482;BME280;5288;42.334;23.876;2022-10-03T00:24:33;56256.94;;;-140.56;65.15
10482;BME280;5288;42.334;23.876;2022-10-03T00:27:10;56233.22;;;-140.56;64.79
10482;BME280;5288;42.334;23.876;2022-10-03T00:30:00;56225.31;;;-140.56;64.39
10482;BME280;5288;42.334;23.876;2022-10-03T00:32:36;56243.13;;;-140.56;63.78
10482;BME280;5288;42.334;23.876;2022-10-03T00:35:18;56249.03;;;-140.56;64.00
10482;BME280;5288;42.334;23.876;2022-10-03T00:38:00;56237.19;;;-140.56;63.83
10482;BME280;5288;42.334;23.876;2022-10-03T00:40:35;56241.13;;;-140.56;63.91
10482;BME280;5288;42.334;23.876;2022-10-03T00:46:30;56247.06;;;-140.56;64.34
10482;BME280;5288;42.334;23.876;2022-10-03T00:49:17;56223.34;;;-140.56;64.44
10482;BME280;5288;42.334;23.876;2022-10-03T00:52:01;56247.06;;;-140.56;64.26
10482;BME280;5288;42.334;23.876;2022-10-03T00:54:43;56262.88;;;-140.56;64.16
10482;BME280;5288;42.334;23.876;2022-10-03T00:57:27;56243.13;;;-140.56;64.37
10482;BME280;5288;42.334;23.876;2022-10-03T01:00:13;56233.22;;;-140.56;64.44
10482;BME280;5288;42.334;23.876;2022-10-03T01:03:04;56209.50;;;-140.56;64.80
10482;BME280;5288;42.334;23.876;2022-10-03T01:05:43;56253.00;;;-140.56;65.95
10482;BME280;5288;42.334;23.876;2022-10-03T01:08:32;56276.72;;;-140.56;66.47
10482;BME280;5288;42.334;23.876;2022-10-03T01:11:14;56272.75;;;-140.56;66.01
10482;BME280;5288;42.334;23.876;2022-10-03T01:13:54;56274.72;;;-140.56;65.76
10482;BME280;5288;42.334;23.876;2022-10-03T01:16:33;56247.06;;;-140.56;65.60
10482;BME280;5288;42.334;23.876;2022-10-03T01:19:20;56280.66;;;-140.56;65.85
10482;BME280;5288;42.334;23.876;2022-10-03T01:22:03;56270.78;;;-140.56;65.87
10482;BME280;5288;42.334;23.876;2022-10-03T01:24:50;56239.16;;;-140.56;66.55
10482;BME280;5288;42.334;23.876;2022-10-03T01:27:24;56286.59;;;-140.56;66.37
10482;BME280;5288;42.334;23.876;2022-10-03T01:29:57;56243.13;;;-140.56;66.41
10482;BME280;5288;42.334;23.876;2022-10-03T01:32:47;56245.09;;;-140.56;66.22
10482;BME280;5288;42.334;23.876;2022-10-03T01:35:35;56262.88;;;-140.56;66.56
10482;BME280;5288;42.334;23.876;2022-10-03T01:38:15;56290.53;;;-140.56;67.20
10482;BME280;5288;42.334;23.876;2022-10-03T01:40:52;56260.91;;;-140.56;67.21
10482;BME280;5288;42.334;23.876;2022-10-03T01:43:31;56298.44;;;-140.56;67.63
10482;BME280;5288;42.334;23.876;2022-10-03T01:46:08;56290.53;;;-140.56;67.91
10482;BME280;5288;42.334;23.876;2022-10-03T01:48:49;56288.56;;;-140.56;67.78
10482;BME280;5288;42.334;23.876;2022-10-03T01:51:23;56294.50;;;-140.56;67.83
10482;BME280;5288;42.334;23.876;2022-10-03T01:54:03;56290.53;;;-140.56;67.90
10482;BME280;5288;42.334;23.876;2022-10-03T01:56:36;56280.66;;;-140.56;67.49
10482;BME280;5288;42.334;23.876;2022-10-03T01:59:10;56274.72;;;-140.56;67.36
10482;BME280;5288;42.334;23.876;2022-10-03T02:01:47;56278.69;;;-140.56;68.27
10482;BME280;5288;42.334;23.876;2022-10-03T02:04:25;56294.50;;;-140.56;68.90
10482;BME280;5288;42.334;23.876;2022-10-03T02:07:01;56266.81;;;-140.56;69.96
10482;BME280;5288;42.334;23.876;2022-10-03T02:09:37;56276.72;;;-140.56;70.29
10482;BME280;5288;42.334;23.876;2022-10-03T02:12:09;56280.66;;;-140.56;70.28
10482;BME280;5288;42.334;23.876;2022-10-03T02:14:47;56268.81;;;-140.56;69.97
10482;BME280;5288;42.334;23.876;2022-10-03T02:17:26;56316.25;;;-140.56;70.08
10482;BME280;5288;42.334;23.876;2022-10-03T02:20:02;56262.88;;;-140.56;70.22
10482;BME280;5288;42.334;23.876;2022-10-03T02:22:33;56256.94;;;-140.56;70.23
10482;BME280;5288;42.334;23.876;2022-10-03T02:25:11;56280.66;;;-140.56;70.24
10482;BME280;5288;42.334;23.876;2022-10-03T02:28:03;56290.53;;;-140.56;70.46
10482;BME280;5288;42.334;23.876;2022-10-03T02:30:45;56304.38;;;-140.56;70.78
10482;BME280;5288;42.334;23.876;2022-10-03T02:33:52;56278.69;;;-140.56;70.33
10482;BME280;5288;42.334;23.876;2022-10-03T02:36:50;56298.44;;;-140.56;69.81
10482;BME280;5288;42.334;23.876;2022-10-03T02:39:52;56251.03;;;-140.56;69.42
10482;BME280;5288;42.334;23.876;2022-10-03T02:45:51;56288.56;;;-140.56;69.38
10482;BME280;5288;42.334;23.876;2022-10-03T02:48:56;56270.78;;;-140.56;70.46
10482;BME280;5288;42.334;23.876;2022-10-03T02:55:04;56262.88;;;-140.56;70.98
10482;BME280;5288;42.334;23.876;2022-10-03T02:58:05;56316.25;;;-140.56;70.34
10482;BME280;5288;42.334;23.876;2022-10-03T03:03:58;56272.75;;;-140.56;69.95
10482;BME280;5288;42.334;23.876;2022-10-03T03:06:41;56300.44;;;-140.56;70.51
10482;BME280;5288;42.334;23.876;2022-10-03T03:18:52;56302.41;;;-140.56;70.22
10482;BME280;5288;42.334;23.876;2022-10-03T03:21:36;56302.41;;;-140.56;70.09
10482;BME280;5288;42.334;23.876;2022-10-03T03:24:16;56322.16;;;-140.56;70.12
10482;BME280;5288;42.334;23.876;2022-10-03T03:26:57;56262.88;;;-140.56;70.75
10482;BME280;5288;42.334;23.876;2022-10-03T03:29:37;56298.44;;;-140.56;71.06
10482;BME280;5288;42.334;23.876;2022-10-03T03:32:16;56298.44;;;-140.56;71.09
10482;BME280;5288;42.334;23.876;2022-10-03T03:34:54;56314.25;;;-140.56;70.80
10482;BME280;5288;42.334;23.876;2022-10-03T03:37:32;56294.50;;;-140.56;70.98
10482;BME280;5288;42.334;23.876;2022-10-03T03:40:16;56302.41;;;-140.56;71.00
10482;BME280;5288;42.334;23.876;2022-10-03T03:45:45;56298.44;;;-140.56;70.86
10482;BME280;5288;42.334;23.876;2022-10-03T03:48:34;56310.31;;;-140.56;70.62
10482;BME280;5288;42.334;23.876;2022-10-03T03:51:21;56294.50;;;-140.56;71.38
10482;BME280;5288;42.334;23.876;2022-10-03T03:54:13;56316.25;;;-140.56;70.96
10482;BME280;5288;42.334;23.876;2022-10-03T03:57:15;56266.81;;;-140.56;70.96
10482;BME280;5288;42.334;23.876;2022-10-03T04:00:01;56316.25;;;-140.56;71.36
10482;BME280;5288;42.334;23.876;2022-10-03T04:02:44;56274.72;;;-140.56;71.11
10482;BME280;5288;42.334;23.876;2022-10-03T04:05:28;56298.44;;;-140.56;70.93
10482;BME280;5288;42.334;23.876;2022-10-03T04:08:16;56274.72;;;-140.56;70.66
10482;BME280;5288;42.334;23.876;2022-10-03T04:11:01;56270.78;;;-140.56;70.81
10482;BME280;5288;42.334;23.876;2022-10-03T04:13:51;56270.78;;;-140.56;70.83
10482;BME280;5288;42.334;23.876;2022-10-03T04:16:42;56294.50;;;-140.56;71.08
10482;BME280;5288;42.334;23.876;2022-10-03T04:19:39;56306.34;;;-140.56;71.20
10482;BME280;5288;42.334;23.876;2022-10-03T04:22:21;56288.56;;;-140.56;71.11
10482;BME280;5288;42.334;23.876;2022-10-03T04:25:18;56304.38;;;-140.56;71.41
10482;BME280;5288;42.334;23.876;2022-10-03T04:28:07;56300.44;;;-140.56;71.71
10482;BME280;5288;42.334;23.876;2022-10-03T04:30:45;56320.19;;;-140.56;71.63
10482;BME280;5288;42.334;23.876;2022-10-03T04:33:28;56272.75;;;-140.56;72.63
10482;BME280;5288;42.334;23.876;2022-10-03T04:39:09;56290.53;;;-140.56;73.23
10482;BME280;5288;42.334;23.876;2022-10-03T04:41:44;56292.53;;;-140.56;73.42
10482;BME280;5288;42.334;23.876;2022-10-03T04:44:27;56306.34;;;-140.56;73.34
10482;BME280;5288;42.334;23.876;2022-10-03T04:47:01;56324.13;;;-140.56;73.80
10482;BME280;5288;42.334;23.876;2022-10-03T04:49:33;56332.03;;;-140.56;74.30
10482;BME280;5288;42.334;23.876;2022-10-03T04:52:05;56296.47;;;-140.56;74.36
10482;BME280;5288;42.334;23.876;2022-10-03T04:54:47;56314.25;;;-140.56;73.95
10482;BME280;5288;42.334;23.876;2022-10-03T04:57:24;56270.78;;;-140.56;73.97
10482;BME280;5288;42.334;23.876;2022-10-03T05:00:03;56312.28;;;-140.56;74.27
10482;BME280;5288;42.334;23.876;2022-10-03T05:02:44;56286.59;;;-140.56;74.20
10482;BME280;5288;42.334;23.876;2022-10-03T05:05:24;56318.22;;;-140.56;73.72
10482;BME280;5288;42.334;23.876;2022-10-03T05:08:01;56316.25;;;-140.56;73.64
10482;BME280;5288;42.334;23.876;2022-10-03T05:10:46;56304.38;;;-140.56;73.14
10482;BME280;5288;42.334;23.876;2022-10-03T05:13:27;56302.41;;;-140.56;73.61
10482;BME280;5288;42.334;23.876;2022-10-03T05:16:13;56294.50;;;-140.56;73.60
10482;BME280;5288;42.334;23.876;2022-10-03T05:18:48;56320.19;;;-140.56;73.57
10482;BME280;5288;42.334;23.876;2022-10-03T05:21:27;56260.91;;;-140.56;73.83
10482;BME280;5288;42.334;23.876;2022-10-03T05:24:03;56278.69;;;-140.56;73.70
10482;BME280;5288;42.334;23.876;2022-10-03T05:26:43;56302.41;;;-140.56;73.69
10482;BME280;5288;42.334;23.876;2022-10-03T05:29:22;56294.50;;;-140.56;73.61
10482;BME280;5288;42.334;23.876;2022-10-03T05:32:11;56318.22;;;-140.56;73.40
10482;BME280;5288;42.334;23.876;2022-10-03T05:34:59;56276.72;;;-140.56;73.19
10482;BME280;5288;42.334;23.876;2022-10-03T05:40:37;56280.66;;;-140.56;73.25
10482;BME280;5288;42.334;23.876;2022-10-03T05:43:22;56288.56;;;-140.56;73.05
10482;BME280;5288;42.334;23.876;2022-10-03T05:46:02;56296.47;;;-140.56;73.43
10482;BME280;5288;42.334;23.876;2022-10-03T05:48:50;56245.09;;;-140.56;73.12
10482;BME280;5288;42.334;23.876;2022-10-03T05:51:45;56268.81;;;-140.56;72.66
10482;BME280;5288;42.334;23.876;2022-10-03T06:00:21;56282.63;;;-140.56;72.62
10482;BME280;5288;42.334;23.876;2022-10-03T06:03:25;56270.78;;;-140.56;71.77
10482;BME280;5288;42.334;23.876;2022-10-03T06:06:11;56278.69;;;-140.56;71.45
10482;BME280;5288;42.334;23.876;2022-10-03T06:12:02;56280.66;;;-140.56;70.46
10482;BME280;5288;42.334;23.876;2022-10-03T06:14:43;56205.56;;;-140.56;68.58
10482;BME280;5288;42.334;23.876;2022-10-03T06:17:35;56251.03;;;-140.56;68.21
10482;BME280;5288;42.334;23.876;2022-10-03T06:20:24;56266.81;;;-140.56;68.12
10482;BME280;5288;42.334;23.876;2022-10-03T06:23:28;56260.91;;;-140.56;68.07
10482;BME280;5288;42.334;23.876;2022-10-03T06:26:22;56266.81;;;-140.56;67.27
10482;BME280;5288;42.334;23.876;2022-10-03T06:29:51;56270.78;;;-140.56;66.97
10482;BME280;5288;42.334;23.876;2022-10-03T06:35:38;56251.03;;;-140.56;64.17
10482;BME280;5288;42.334;23.876;2022-10-03T06:42:04;56217.41;;;-140.56;63.69
10482;BME280;5288;42.334;23.876;2022-10-03T06:47:52;56191.72;;;-140.56;63.86
10482;BME280;5288;42.334;23.876;2022-10-03T06:50:42;56173.94;;;-140.56;63.50
10482;BME280;5288;42.334;23.876;2022-10-03T06:56:41;56171.97;;;-140.56;61.44
10482;BME280;5288;42.334;23.876;2022-10-03T06:59:36;56162.09;;;-140.56;60.07
10482;BME280;5288;42.334;23.876;2022-10-03T07:06:06;56144.31;;;-140.56;58.35
10482;BME280;5288;42.334;23.876;2022-10-03T07:15:02;56144.31;;;-140.56;58.62
10482;BME280;5288;42.334;23.876;2022-10-03T07:17:53;56154.19;;;-140.56;58.94
10482;BME280;5288;42.334;23.876;2022-10-03T07:21:03;56152.22;;;-140.56;59.98
10482;BME280;5288;42.334;23.876;2022-10-03T07:23:54;56177.91;;;-140.56;60.71
10482;BME280;5288;42.334;23.876;2022-10-03T07:26:56;56142.31;;;-140.56;59.58
10482;BME280;5288;42.334;23.876;2022-10-03T07:29:47;56128.50;;;-140.56;58.77
10482;BME280;5288;42.334;23.876;2022-10-03T07:35:44;56100.81;;;-140.56;52.77
10482;BME280;5288;42.334;23.876;2022-10-03T07:38:50;56055.38;;;-140.56;51.22
10482;BME280;5288;42.334;23.876;2022-10-03T07:41:41;56088.97;;;-140.56;49.57
10482;BME280;5288;42.334;23.876;2022-10-03T07:53:41;56085.00;;;-140.56;49.46
10482;BME280;5288;42.334;23.876;2022-10-03T07:56:32;56083.03;;;-140.56;48.36
10482;BME280;5288;42.334;23.876;2022-10-03T07:59:38;56059.31;;;-140.56;47.38
10482;BME280;5288;42.334;23.876;2022-10-03T08:02:24;56065.25;;;-140.56;47.19
10482;BME280;5288;42.334;23.876;2022-10-03T08:05:27;56035.63;;;-140.56;47.61
10482;BME280;5288;42.334;23.876;2022-10-03T08:08:25;56053.41;;;-140.56;47.59
10482;BME280;5288;42.334;23.876;2022-10-03T08:11:13;56059.31;;;-140.56;49.24
10482;BME280;5288;42.334;23.876;2022-10-03T08:14:13;56055.38;;;-140.56;50.22
10482;BME280;5288;42.334;23.876;2022-10-03T08:17:18;56077.09;;;-140.56;51.29
10482;BME280;5288;42.334;23.876;2022-10-03T08:20:11;56077.09;;;-140.56;51.14
10482;BME280;5288;42.334;23.876;2022-10-03T08:22:57;56073.16;;;-140.56;52.57
10482;BME280;5288;42.334;23.876;2022-10-03T08:25:44;56092.91;;;-140.56;53.83
10482;BME280;5288;42.334;23.876;2022-10-03T08:34:33;56132.44;;;-140.56;54.26
10482;BME280;5288;42.334;23.876;2022-10-03T08:37:19;56083.03;;;-140.56;53.89
10482;BME280;5288;42.334;23.876;2022-10-03T08:43:40;56118.59;;;-140.56;55.06
10482;BME280;5288;42.334;23.876;2022-10-03T08:46:31;56164.06;;;-140.56;55.47
10482;BME280;5288;42.334;23.876;2022-10-03T08:49:57;56140.34;;;-140.56;55.36
10482;BME280;5288;42.334;23.876;2022-10-03T08:52:39;56158.13;;;-140.56;56.03
10482;BME280;5288;42.334;23.876;2022-10-03T08:55:35;56140.34;;;-140.56;56.75
10482;BME280;5288;42.334;23.876;2022-10-03T08:58:24;56136.41;;;-140.56;57.40
10482;BME280;5288;42.334;23.876;2022-10-03T09:01:18;56181.84;;;-140.56;58.35
10482;BME280;5288;42.334;23.876;2022-10-03T09:04:36;56162.09;;;-140.56;59.01
10482;BME280;5288;42.334;23.876;2022-10-03T09:07:46;56171.97;;;-140.56;60.04
10482;BME280;5288;42.334;23.876;2022-10-03T09:10:35;56164.06;;;-140.56;60.61
10482;BME280;5288;42.334;23.876;2022-10-03T09:16:50;56168.00;;;-140.56;61.62
10482;BME280;5288;42.334;23.876;2022-10-03T09:25:48;56171.97;;;-140.56;61.73
10482;BME280;5288;42.334;23.876;2022-10-03T09:28:47;56170.00;;;-140.56;62.04
10482;BME280;5288;42.334;23.876;2022-10-03T09:34:39;56162.09;;;-140.56;62.01
10482;BME280;5288;42.334;23.876;2022-10-03T09:37:32;56164.06;;;-140.56;61.73
10482;BME280;5288;42.334;23.876;2022-10-03T09:40:48;56156.16;;;-140.56;61.41
10482;BME280;5288;42.334;23.876;2022-10-03T09:43:56;56170.00;;;-140.56;61.97
10482;BME280;5288;42.334;23.876;2022-10-03T09:47:01;56156.16;;;-140.56;62.33
10482;BME280;5288;42.334;23.876;2022-10-03T09:53:21;56168.00;;;-140.56;63.09
10482;BME280;5288;42.334;23.876;2022-10-03T09:59:14;56175.91;;;-140.56;66.31
10482;BME280;5288;42.334;23.876;2022-10-03T10:01:50;56175.91;;;-140.56;67.63
10482;BME280;5288;42.334;23.876;2022-10-03T10:04:40;56191.72;;;-140.56;69.31
10482;BME280;5288;42.334;23.876;2022-10-03T10:10:36;56205.56;;;-140.56;71.25
10482;BME280;5288;42.334;23.876;2022-10-03T10:13:26;56189.75;;;-140.56;71.55
10482;BME280;5288;42.334;23.876;2022-10-03T10:16:23;56156.16;;;-140.56;71.91
10482;BME280;5288;42.334;23.876;2022-10-03T10:19:20;56209.50;;;-140.56;71.75
10482;BME280;5288;42.334;23.876;2022-10-03T10:22:18;56179.88;;;-140.56;72.38
10482;BME280;5288;42.334;23.876;2022-10-03T10:25:19;56185.81;;;-140.56;72.13
10482;BME280;5288;42.334;23.876;2022-10-03T10:28:30;56193.72;;;-140.56;72.43
10482;BME280;5288;42.334;23.876;2022-10-03T10:31:42;56187.78;;;-140.56;71.85
10482;BME280;5288;42.334;23.876;2022-10-03T10:37:50;56175.91;;;-140.56;67.90
10482;BME280;5288;42.334;23.876;2022-10-03T10:40:47;56171.97;;;-140.56;65.47
10482;BME280;5288;42.334;23.876;2022-10-03T10:50:48;56158.13;;;-140.56;65.89
10482;BME280;5288;42.334;23.876;2022-10-03T10:56:45;56104.78;;;-140.56;63.84
10482;BME280;5288;42.334;23.876;2022-10-03T11:00:05;56104.78;;;-140.56;61.74
10482;BME280;5288;42.334;23.876;2022-10-03T11:03:20;56092.91;;;-140.56;60.18
10482;BME280;5288;42.334;23.876;2022-10-03T11:09:26;56144.31;;;-140.56;58.94
10482;BME280;5288;42.334;23.876;2022-10-03T11:18:59;56142.31;;;-140.56;57.42
10482;BME280;5288;42.334;23.876;2022-10-03T11:22:07;56136.41;;;-140.56;58.51
10482;BME280;5288;42.334;23.876;2022-10-03T11:25:17;56126.50;;;-140.56;57.34
10482;BME280;5288;42.334;23.876;2022-10-03T11:37:05;56114.66;;;-140.56;54.06
10482;BME280;5288;42.334;23.876;2022-10-03T11:39:46;56102.81;;;-140.56;53.41
10482;BME280;5288;42.334;23.876;2022-10-03T11:42:28;56124.53;;;-140.56;51.75
10482;BME280;5288;42.334;23.876;2022-10-03T11:45:03;56144.31;;;-140.56;51.83
10482;BME280;5288;42.334;23.876;2022-10-03T11:47:54;56122.56;;;-140.56;50.61
10482;BME280;5288;42.334;23.876;2022-10-03T11:50:35;56100.81;;;-140.56;50.18
10482;BME280;5288;42.334;23.876;2022-10-03T11:53:32;56160.13;;;-140.56;49.71
10482;BME280;5288;42.334;23.876;2022-10-03T11:56:24;56126.50;;;-140.56;50.91
10482;BME280;5288;42.334;23.876;2022-10-03T12:01:59;56140.34;;;-140.56;48.84
10482;BME280;5288;42.334;23.876;2022-10-03T12:04:44;56108.72;;;-140.56;48.54
10482;BME280;5288;42.334;23.876;2022-10-03T12:07:23;56144.31;;;-140.56;48.94
10482;BME280;5288;42.334;23.876;2022-10-03T12:10:23;56128.50;;;-140.56;49.84
10482;BME280;5288;42.334;23.876;2022-10-03T12:12:56;56122.56;;;-140.56;49.10
10482;BME280;5288;42.334;23.876;2022-10-03T12:15:31;56120.59;;;-140.56;49.68
10482;BME280;5288;42.334;23.876;2022-10-03T12:18:04;56075.13;;;-140.56;49.40
10482;BME280;5288;42.334;23.876;2022-10-03T12:21:05;56108.72;;;-140.56;47.87
10482;BME280;5288;42.334;23.876;2022-10-03T12:23:55;56102.81;;;-140.56;48.64
10482;BME280;5288;42.334;23.876;2022-10-03T12:26:35;56122.56;;;-140.56;48.65
10482;BME280;5288;42.334;23.876;2022-10-03T12:29:09;56112.69;;;-140.56;49.29
10482;BME280;5288;42.334;23.876;2022-10-03T12:31:41;56102.81;;;-140.56;48.09
10482;BME280;5288;42.334;23.876;2022-10-03T12:34:26;56085.00;;;-140.56;47.16
10482;BME280;5288;42.334;23.876;2022-10-03T12:37:09;56092.91;;;-140.56;47.36
10482;BME280;5288;42.334;23.876;2022-10-03T12:39:52;56120.59;;;-140.56;47.21
10482;BME280;5288;42.334;23.876;2022-10-03T12:42:28;56061.31;;;-140.56;47.18
10482;BME280;5288;42.334;23.876;2022-10-03T12:44:59;56108.72;;;-140.56;46.41
10482;BME280;5288;42.334;23.876;2022-10-03T12:47:41;56081.06;;;-140.56;46.10
10482;BME280;5288;42.334;23.876;2022-10-03T12:50:26;56087.00;;;-140.56;46.84
10482;BME280;5288;42.334;23.876;2022-10-03T12:53:09;56092.91;;;-140.56;44.56
10482;BME280;5288;42.334;23.876;2022-10-03T12:55:49;56116.63;;;-140.56;44.55
10482;BME280;5288;42.334;23.876;2022-10-03T12:58:27;56112.69;;;-140.56;43.82
10482;BME280;5288;42.334;23.876;2022-10-03T13:01:04;56102.81;;;-140.56;43.65
10482;BME280;5288;42.334;23.876;2022-10-03T13:03:39;56100.81;;;-140.56;43.25
10482;BME280;5288;42.334;23.876;2022-10-03T13:06:42;56061.31;;;-140.56;44.41
10482;BME280;5288;42.334;23.876;2022-10-03T13:10:08;56108.72;;;-140.56;45.90
10482;BME280;5288;42.334;23.876;2022-10-03T13:12:44;56096.88;;;-140.56;46.05
10482;BME280;5288;42.334;23.876;2022-10-03T13:15:47;56134.41;;;-140.56;44.24
10482;BME280;5288;42.334;23.876;2022-10-03T13:18:32;56118.59;;;-140.56;43.82
10482;BME280;5288;42.334;23.876;2022-10-03T13:21:05;56118.59;;;-140.56;43.25
10482;BME280;5288;42.334;23.876;2022-10-03T13:23:41;56118.59;;;-140.56;43.80
10482;BME280;5288;42.334;23.876;2022-10-03T13:26:15;56112.69;;;-140.56;44.16
10482;BME280;5288;42.334;23.876;2022-10-03T13:29:10;56148.25;;;-140.56;44.23
10482;BME280;5288;42.334;23.876;2022-10-03T13:32:03;56112.69;;;-140.56;45.02
10482;BME280;5288;42.334;23.876;2022-10-03T13:34:35;56108.72;;;-140.56;45.36
10482;BME280;5288;42.334;23.876;2022-10-03T13:37:07;56065.25;;;-140.56;46.57
10482;BME280;5288;42.334;23.876;2022-10-03T13:39:44;56088.97;;;-140.56;45.70
10482;BME280;5288;42.334;23.876;2022-10-03T13:42:16;56087.00;;;-140.56;44.95
10482;BME280;5288;42.334;23.876;2022-10-03T13:44:50;56088.97;;;-140.56;45.43
10482;BME280;5288;42.334;23.876;2022-10-03T13:47:34;56092.91;;;-140.56;44.59
10482;BME280;5288;42.334;23.876;2022-10-03T13:50:04;56085.00;;;-140.56;44.80
10482;BME280;5288;42.334;23.876;2022-10-03T13:52:38;56100.81;;;-140.56;44.75
10482;BME280;5288;42.334;23.876;2022-10-03T13:55:14;56077.09;;;-140.56;44.85
10482;BME280;5288;42.334;23.876;2022-10-03T13:57:49;56112.69;;;-140.56;43.77
10482;BME280;5288;42.334;23.876;2022-10-03T14:00:22;56069.22;;;-140.56;43.18
10482;BME280;5288;42.334;23.876;2022-10-03T14:03:07;56077.09;;;-140.56;43.17
10482;BME280;5288;42.334;23.876;2022-10-03T14:05:49;56083.03;;;-140.56;43.54
10482;BME280;5288;42.334;23.876;2022-10-03T14:11:21;56071.19;;;-140.56;44.04
10482;BME280;5288;42.334;23.876;2022-10-03T14:14:14;56049.44;;;-140.56;44.72
10482;BME280;5288;42.334;23.876;2022-10-03T14:16:54;56088.97;;;-140.56;44.57
10482;BME280;5288;42.334;23.876;2022-10-03T14:19:32;56120.59;;;-140.56;43.51
10482;BME280;5288;42.334;23.876;2022-10-03T14:22:16;56092.91;;;-140.56;41.76
10482;BME280;5288;42.334;23.876;2022-10-03T14:24:53;56053.41;;;-140.56;41.56
10482;BME280;5288;42.334;23.876;2022-10-03T14:27:46;56085.00;;;-140.56;40.86
10482;BME280;5288;42.334;23.876;2022-10-03T14:30:17;56090.94;;;-140.56;40.04
10482;BME280;5288;42.334;23.876;2022-10-03T14:32:59;56079.09;;;-140.56;41.53
10482;BME280;5288;42.334;23.876;2022-10-03T14:35:38;56104.78;;;-140.56;41.12
10482;BME280;5288;42.334;23.876;2022-10-03T14:38:22;56090.94;;;-140.56;41.02
10482;BME280;5288;42.334;23.876;2022-10-03T14:41:18;56104.78;;;-140.56;41.68
10482;BME280;5288;42.334;23.876;2022-10-03T14:43:51;56088.97;;;-140.56;41.92
10482;BME280;5288;42.334;23.876;2022-10-03T14:46:22;56081.06;;;-140.56;41.84
10482;BME280;5288;42.334;23.876;2022-10-03T14:48:56;56104.78;;;-140.56;41.96
10482;BME280;5288;42.334;23.876;2022-10-03T14:51:28;56098.84;;;-140.56;41.88
10482;BME280;5288;42.334;23.876;2022-10-03T14:53:58;56144.31;;;-140.56;41.66
10482;BME280;5288;42.334;23.876;2022-10-03T14:56:28;56110.72;;;-140.56;42.27
10482;BME280;5288;42.334;23.876;2022-10-03T14:59:00;56134.41;;;-140.56;42.30
10482;BME280;5288;42.334;23.876;2022-10-03T15:01:28;56134.41;;;-140.56;42.02
10482;BME280;5288;42.334;23.876;2022-10-03T15:04:01;56110.72;;;-140.56;43.15
10482;BME280;5288;42.334;23.876;2022-10-03T15:06:47;56106.75;;;-140.56;41.48
10482;BME280;5288;42.334;23.876;2022-10-03T15:09:21;56104.78;;;-140.56;41.23
10482;BME280;5288;42.334;23.876;2022-10-03T15:11:54;56124.53;;;-140.56;42.30
10482;BME280;5288;42.334;23.876;2022-10-03T15:14:26;56098.84;;;-140.56;42.28
10482;BME280;5288;42.334;23.876;2022-10-03T15:16:57;56110.72;;;-140.56;43.15
10482;BME280;5288;42.334;23.876;2022-10-03T15:19:32;56128.50;;;-140.56;44.10
10482;BME280;5288;42.334;23.876;2022-10-03T15:22:20;56094.91;;;-140.56;44.38
10482;BME280;5288;42.334;23.876;2022-10-03T15:24:50;56140.34;;;-140.56;43.80
10482;BME280;5288;42.334;23.876;2022-10-03T15:27:20;56067.22;;;-140.56;44.69
10482;BME280;5288;42.334;23.876;2022-10-03T15:29:52;56100.81;;;-140.56;41.29
10482;BME280;5288;42.334;23.876;2022-10-03T15:32:24;56166.03;;;-140.56;40.74
10482;BME280;5288;42.334;23.876;2022-10-03T15:34:56;56120.59;;;-140.56;40.06
10482;BME280;5288;42.334;23.876;2022-10-03T15:37:28;56124.53;;;-140.56;39.88
10482;BME280;5288;42.334;23.876;2022-10-03T15:40:08;56118.59;;;-140.56;40.06
10482;BME280;5288;42.334;23.876;2022-10-03T15:42:48;56134.41;;;-140.56;40.70
10482;BME280;5288;42.334;23.876;2022-10-03T15:45:19;56128.50;;;-140.56;41.17
10482;BME280;5288;42.334;23.876;2022-10-03T15:47:49;56104.78;;;-140.56;41.24
10482;BME280;5288;42.334;23.876;2022-10-03T15:50:21;56148.25;;;-140.56;41.63
10482;BME280;5288;42.334;23.876;2022-10-03T15:52:50;56110.72;;;-140.56;41.48
10482;BME280;5288;42.334;23.876;2022-10-03T15:55:20;56140.34;;;-140.56;42.16
10482;BME280;5288;42.334;23.876;2022-10-03T15:57:53;56118.59;;;-140.56;42.24
10482;BME280;5288;42.334;23.876;2022-10-03T16:00:27;56152.22;;;-140.56;42.57
10482;BME280;5288;42.334;23.876;2022-10-03T16:03:03;56120.59;;;-140.56;42.97
10482;BME280;5288;42.334;23.876;2022-10-03T16:05:35;56122.56;;;-140.56;43.41
10482;BME280;5288;42.334;23.876;2022-10-03T16:08:11;56120.59;;;-140.56;43.91
10482;BME280;5288;42.334;23.876;2022-10-03T16:10:48;56154.19;;;-140.56;43.19
10482;BME280;5288;42.334;23.876;2022-10-03T16:13:29;56142.31;;;-140.56;44.26
10482;BME280;5288;42.334;23.876;2022-10-03T16:16:08;56164.06;;;-140.56;44.42
10482;BME280;5288;42.334;23.876;2022-10-03T16:18:42;56152.22;;;-140.56;43.84
10482;BME280;5288;42.334;23.876;2022-10-03T16:21:19;56156.16;;;-140.56;44.45
10482;BME280;5288;42.334;23.876;2022-10-03T16:23:52;56144.31;;;-140.56;44.79
10482;BME280;5288;42.334;23.876;2022-10-03T16:26:26;56189.75;;;-140.56;46.10
10482;BME280;5288;42.334;23.876;2022-10-03T16:29:04;56173.94;;;-140.56;45.64
10482;BME280;5288;42.334;23.876;2022-10-03T16:31:39;56160.13;;;-140.56;46.32
10482;BME280;5288;42.334;23.876;2022-10-03T16:34:12;56138.38;;;-140.56;46.58
10482;BME280;5288;42.334;23.876;2022-10-03T16:36:44;56146.28;;;-140.56;47.82